sensor_id;sensor_type;location;lat;lon;timestamp;P1;durP1;ratioP1;P2;durP2;ratioP2
35648;SDS011;21768;48.562;13.414;2024-01-07T00:00:12;10.93;;;6.63;;
35648;SDS011;21768;48.562;13.414;2024-01-07T00:02:38;13.85;;;7.15;;
35648;SDS011;21768;48.562;13.414;2024-01-07T00:05:03;11.30;;;6.90;;
35648;SDS011;21768;48.562;13.414;2024-01-07T00:07:29;12.15;;;7.03;;
35648;SDS011;21768;48.562;13.414;2024-01-07T00:09:55;12.13;;;7.25;;
35648;SDS011;21768;48.562;13.414;2024-01-07T00:12:20;12.57;;;7.38;;
35648;SDS011;21768;48.562;13.414;2024-01-07T00:14:45;11.43;;;6.38;;
35648;SDS011;21768;48.562;13.414;2024-01-07T00:17:10;14.77;;;7.60;;
35648;SDS011;21768;48.562;13.414;2024-01-07T00:19:36;12.10;;;7.30;;
35648;SDS011;21768;48.562;13.414;2024-01-07T00:22:02;13.23;;;7.05;;
35648;SDS011;21768;48.562;13.414;2024-01-07T00:24:28;12.15;;;7.63;;
35648;SDS011;21768;48.562;13.414;2024-01-07T00:26:54;12.85;;;7.25;;
35648;SDS011;21768;48.562;13.414;2024-01-07T00:29:19;12.38;;;7.25;;
35648;SDS011;21768;48.562;13.414;2024-01-07T00:31:45;11.73;;;7.53;;
35648;SDS011;21768;48.562;13.414;2024-01-07T00:34:10;12.65;;;7.57;;
35648;SDS011;21768;48.562;13.414;2024-01-07T00:36:35;14.32;;;8.00;;
35648;SDS011;21768;48.562;13.414;2024-01-07T00:39:01;13.80;;;8.38;;
35648;SDS011;21768;48.562;13.414;2024-01-07T00:41:26;13.68;;;8.00;;
35648;SDS011;21768;48.562;13.414;2024-01-07T00:43:52;13.95;;;8.05;;
35648;SDS011;21768;48.562;13.414;2024-01-07T00:46:17;12.35;;;7.30;;
35648;SDS011;21768;48.562;13.414;2024-01-07T00:48:43;12.98;;;7.88;;
35648;SDS011;21768;48.562;13.414;2024-01-07T00:51:08;15.48;;;7.72;;
35648;SDS011;21768;48.562;13.414;2024-01-07T00:53:33;12.48;;;7.90;;
35648;SDS011;21768;48.562;13.414;2024-01-07T00:55:59;12.57;;;7.80;;
35648;SDS011;21768;48.562;13.414;2024-01-07T00:58:24;15.60;;;7.88;;
35648;SDS011;21768;48.562;13.414;2024-01-07T01:00:49;12.25;;;7.53;;
35648;SDS011;21768;48.562;13.414;2024-01-07T01:03:15;13.90;;;7.82;;
35648;SDS011;21768;48.562;13.414;2024-01-07T01:05:41;13.43;;;7.53;;
35648;SDS011;21768;48.562;13.414;2024-01-07T01:08:06;13.63;;;8.05;;
35648;SDS011;21768;48.562;13.414;2024-01-07T01:10:32;13.68;;;7.35;;
35648;SDS011;21768;48.562;13.414;2024-01-07T01:12:57;15.02;;;7.72;;
35648;SDS011;21768;48.562;13.414;2024-01-07T01:15:22;14.35;;;7.35;;
35648;SDS011;21768;48.562;13.414;2024-01-07T01:17:48;11.35;;;6.72;;
35648;SDS011;21768;48.562;13.414;2024-01-07T01:20:13;11.20;;;6.65;;
35648;SDS011;21768;48.562;13.414;2024-01-07T01:22:39;10.80;;;6.50;;
35648;SDS011;21768;48.562;13.414;2024-01-07T01:25:04;13.30;;;7.00;;
35648;SDS011;21768;48.562;13.414;2024-01-07T01:27:30;10.43;;;6.68;;
35648;SDS011;21768;48.562;13.414;2024-01-07T01:29:55;11.27;;;6.55;;
35648;SDS011;21768;48.562;13.414;2024-01-07T01:32:20;10.93;;;6.90;;
35648;SDS011;21768;48.562;13.414;2024-01-07T01:34:46;12.02;;;7.07;;
35648;SDS011;21768;48.562;13.414;2024-01-07T01:37:11;12.35;;;6.63;;
35648;SDS011;21768;48.562;13.414;2024-01-07T01:39:39;13.32;;;6.80;;
35648;SDS011;21768;48.562;13.414;2024-01-07T01:42:05;11.38;;;6.72;;
35648;SDS011;21768;48.562;13.414;2024-01-07T01:44:31;10.65;;;6.55;;
35648;SDS011;21768;48.562;13.414;2024-01-07T01:46:56;12.10;;;6.50;;
35648;SDS011;21768;48.562;13.414;2024-01-07T01:49:22;11.18;;;6.30;;
35648;SDS011;21768;48.562;13.414;2024-01-07T01:51:49;10.18;;;6.03;;
35648;SDS011;21768;48.562;13.414;2024-01-07T01:54:15;11.32;;;6.38;;
35648;SDS011;21768;48.562;13.414;2024-01-07T01:56:41;10.98;;;5.65;;
35648;SDS011;21768;48.562;13.414;2024-01-07T01:59:07;10.18;;;6.43;;
35648;SDS011;21768;48.562;13.414;2024-01-07T02:01:33;11.20;;;6.68;;
35648;SDS011;21768;48.562;13.414;2024-01-07T02:03:59;10.10;;;6.32;;
35648;SDS011;21768;48.562;13.414;2024-01-07T02:06:24;11.57;;;6.80;;
35648;SDS011;21768;48.562;13.414;2024-01-07T02:08:50;13.45;;;6.68;;
35648;SDS011;21768;48.562;13.414;2024-01-07T02:11:20;15.07;;;6.93;;
35648;SDS011;21768;48.562;13.414;2024-01-07T02:13:47;11.73;;;6.72;;
35648;SDS011;21768;48.562;13.414;2024-01-07T02:16:13;12.63;;;6.60;;
35648;SDS011;21768;48.562;13.414;2024-01-07T02:18:40;10.52;;;6.68;;
35648;SDS011;21768;48.562;13.414;2024-01-07T02:21:06;14.52;;;7.07;;
35648;SDS011;21768;48.562;13.414;2024-01-07T02:23:32;11.40;;;6.68;;
35648;SDS011;21768;48.562;13.414;2024-01-07T02:25:58;10.25;;;6.45;;
35648;SDS011;21768;48.562;13.414;2024-01-07T02:28:23;11.02;;;5.70;;
35648;SDS011;21768;48.562;13.414;2024-01-07T02:30:49;9.93;;;5.95;;
35648;SDS011;21768;48.562;13.414;2024-01-07T02:33:14;11.18;;;6.10;;
35648;SDS011;21768;48.562;13.414;2024-01-07T02:35:39;10.18;;;5.80;;
35648;SDS011;21768;48.562;13.414;2024-01-07T02:38:05;8.40;;;5.00;;
35648;SDS011;21768;48.562;13.414;2024-01-07T02:40:30;13.40;;;5.88;;
35648;SDS011;21768;48.562;13.414;2024-01-07T02:42:55;9.77;;;5.43;;
35648;SDS011;21768;48.562;13.414;2024-01-07T02:45:21;10.32;;;5.78;;
35648;SDS011;21768;48.562;13.414;2024-01-07T02:47:47;8.75;;;5.07;;
35648;SDS011;21768;48.562;13.414;2024-01-07T02:50:12;6.50;;;3.58;;
35648;SDS011;21768;48.562;13.414;2024-01-07T02:52:38;6.07;;;3.63;;
35648;SDS011;21768;48.562;13.414;2024-01-07T02:55:03;5.55;;;3.47;;
35648;SDS011;21768;48.562;13.414;2024-01-07T02:57:29;7.55;;;3.92;;
35648;SDS011;21768;48.562;13.414;2024-01-07T02:59:54;8.50;;;4.57;;
35648;SDS011;21768;48.562;13.414;2024-01-07T03:02:19;8.38;;;4.45;;
35648;SDS011;21768;48.562;13.414;2024-01-07T03:04:45;7.88;;;4.57;;
35648;SDS011;21768;48.562;13.414;2024-01-07T03:07:10;9.88;;;4.95;;
35648;SDS011;21768;48.562;13.414;2024-01-07T03:09:35;6.55;;;3.60;;
35648;SDS011;21768;48.562;13.414;2024-01-07T03:12:01;6.10;;;3.30;;
35648;SDS011;21768;48.562;13.414;2024-01-07T03:14:26;5.70;;;3.47;;
35648;SDS011;21768;48.562;13.414;2024-01-07T03:16:51;5.72;;;3.42;;
35648;SDS011;21768;48.562;13.414;2024-01-07T03:19:17;6.85;;;3.40;;
35648;SDS011;21768;48.562;13.414;2024-01-07T03:21:42;6.50;;;3.75;;
35648;SDS011;21768;48.562;13.414;2024-01-07T03:24:08;6.40;;;3.88;;
35648;SDS011;21768;48.562;13.414;2024-01-07T03:26:33;7.35;;;3.88;;
35648;SDS011;21768;48.562;13.414;2024-01-07T03:28:58;10.57;;;4.43;;
35648;SDS011;21768;48.562;13.414;2024-01-07T03:31:25;4.75;;;3.30;;
35648;SDS011;21768;48.562;13.414;2024-01-07T03:33:50;5.38;;;2.50;;
35648;SDS011;21768;48.562;13.414;2024-01-07T03:36:15;9.40;;;3.42;;
35648;SDS011;21768;48.562;13.414;2024-01-07T03:38:41;4.70;;;3.15;;
35648;SDS011;21768;48.562;13.414;2024-01-07T03:41:06;5.25;;;3.10;;
35648;SDS011;21768;48.562;13.414;2024-01-07T03:43:32;3.45;;;2.50;;
35648;SDS011;21768;48.562;13.414;2024-01-07T03:45:58;3.55;;;2.00;;
35648;SDS011;21768;48.562;13.414;2024-01-07T03:48:24;4.80;;;1.85;;
35648;SDS011;21768;48.562;13.414;2024-01-07T03:50:49;4.38;;;2.10;;
35648;SDS011;21768;48.562;13.414;2024-01-07T03:53:15;2.83;;;1.90;;
35648;SDS011;21768;48.562;13.414;2024-01-07T03:55:41;5.68;;;2.00;;
35648;SDS011;21768;48.562;13.414;2024-01-07T03:58:06;2.42;;;1.60;;
35648;SDS011;21768;48.562;13.414;2024-01-07T04:00:32;3.53;;;1.48;;
35648;SDS011;21768;48.562;13.414;2024-01-07T04:02:57;2.47;;;1.02;;
35648;SDS011;21768;48.562;13.414;2024-01-07T04:05:23;1.92;;;1.20;;
35648;SDS011;21768;48.562;13.414;2024-01-07T04:07:48;4.93;;;1.70;;
35648;SDS011;21768;48.562;13.414;2024-01-07T04:10:15;2.72;;;1.42;;
35648;SDS011;21768;48.562;13.414;2024-01-07T04:12:41;3.85;;;1.13;;
35648;SDS011;21768;48.562;13.414;2024-01-07T04:15:07;3.53;;;1.50;;
35648;SDS011;21768;48.562;13.414;2024-01-07T04:17:32;3.00;;;1.33;;
35648;SDS011;21768;48.562;13.414;2024-01-07T04:19:58;2.28;;;1.20;;
35648;SDS011;21768;48.562;13.414;2024-01-07T04:22:23;2.83;;;1.48;;
35648;SDS011;21768;48.562;13.414;2024-01-07T04:24:48;2.67;;;1.30;;
35648;SDS011;21768;48.562;13.414;2024-01-07T04:27:14;3.03;;;1.23;;
35648;SDS011;21768;48.562;13.414;2024-01-07T04:29:39;5.05;;;1.30;;
35648;SDS011;21768;48.562;13.414;2024-01-07T04:32:07;3.45;;;1.25;;
35648;SDS011;21768;48.562;13.414;2024-01-07T04:34:32;3.78;;;1.33;;
35648;SDS011;21768;48.562;13.414;2024-01-07T04:36:58;2.92;;;1.38;;
35648;SDS011;21768;48.562;13.414;2024-01-07T04:39:23;3.33;;;1.23;;
35648;SDS011;21768;48.562;13.414;2024-01-07T04:41:48;3.13;;;1.42;;
35648;SDS011;21768;48.562;13.414;2024-01-07T04:44:14;2.75;;;1.25;;
35648;SDS011;21768;48.562;13.414;2024-01-07T04:46:39;2.10;;;1.10;;
35648;SDS011;21768;48.562;13.414;2024-01-07T04:49:05;5.47;;;1.00;;
35648;SDS011;21768;48.562;13.414;2024-01-07T04:51:34;3.15;;;1.20;;
35648;SDS011;21768;48.562;13.414;2024-01-07T04:54:01;5.10;;;2.10;;
35648;SDS011;21768;48.562;13.414;2024-01-07T04:56:26;2.03;;;1.00;;
35648;SDS011;21768;48.562;13.414;2024-01-07T04:58:52;3.03;;;1.25;;
35648;SDS011;21768;48.562;13.414;2024-01-07T05:01:17;1.40;;;0.88;;
35648;SDS011;21768;48.562;13.414;2024-01-07T05:03:43;2.78;;;1.27;;
35648;SDS011;21768;48.562;13.414;2024-01-07T05:06:08;2.00;;;1.10;;
35648;SDS011;21768;48.562;13.414;2024-01-07T05:08:34;2.38;;;1.40;;
35648;SDS011;21768;48.562;13.414;2024-01-07T05:11:00;2.20;;;1.15;;
35648;SDS011;21768;48.562;13.414;2024-01-07T05:13:25;2.28;;;1.00;;
35648;SDS011;21768;48.562;13.414;2024-01-07T05:15:51;5.70;;;1.00;;
35648;SDS011;21768;48.562;13.414;2024-01-07T05:18:20;1.38;;;1.10;;
35648;SDS011;21768;48.562;13.414;2024-01-07T05:20:46;2.38;;;1.33;;
35648;SDS011;21768;48.562;13.414;2024-01-07T05:23:11;2.22;;;1.20;;
35648;SDS011;21768;48.562;13.414;2024-01-07T05:25:37;3.63;;;1.35;;
35648;SDS011;21768;48.562;13.414;2024-01-07T05:28:02;2.25;;;1.52;;
35648;SDS011;21768;48.562;13.414;2024-01-07T05:30:28;3.15;;;1.50;;
35648;SDS011;21768;48.562;13.414;2024-01-07T05:32:53;6.95;;;1.38;;
35648;SDS011;21768;48.562;13.414;2024-01-07T05:35:18;1.85;;;1.25;;
35648;SDS011;21768;48.562;13.414;2024-01-07T05:37:43;2.70;;;1.17;;
35648;SDS011;21768;48.562;13.414;2024-01-07T05:40:09;2.80;;;1.67;;
35648;SDS011;21768;48.562;13.414;2024-01-07T05:42:35;3.47;;;1.42;;
35648;SDS011;21768;48.562;13.414;2024-01-07T05:45:00;3.00;;;1.23;;
35648;SDS011;21768;48.562;13.414;2024-01-07T05:47:27;2.42;;;0.90;;
35648;SDS011;21768;48.562;13.414;2024-01-07T05:49:53;2.22;;;0.93;;
35648;SDS011;21768;48.562;13.414;2024-01-07T05:52:18;2.63;;;1.30;;
35648;SDS011;21768;48.562;13.414;2024-01-07T05:54:43;2.58;;;1.30;;
35648;SDS011;21768;48.562;13.414;2024-01-07T05:57:08;1.92;;;1.20;;
35648;SDS011;21768;48.562;13.414;2024-01-07T05:59:35;1.58;;;0.70;;
35648;SDS011;21768;48.562;13.414;2024-01-07T06:02:01;3.83;;;1.15;;
35648;SDS011;21768;48.562;13.414;2024-01-07T06:04:26;1.88;;;0.90;;
35648;SDS011;21768;48.562;13.414;2024-01-07T06:06:51;1.85;;;0.90;;
35648;SDS011;21768;48.562;13.414;2024-01-07T06:09:17;1.80;;;1.10;;
35648;SDS011;21768;48.562;13.414;2024-01-07T06:11:42;3.00;;;0.98;;
35648;SDS011;21768;48.562;13.414;2024-01-07T06:14:07;2.08;;;1.10;;
35648;SDS011;21768;48.562;13.414;2024-01-07T06:16:33;1.80;;;0.90;;
35648;SDS011;21768;48.562;13.414;2024-01-07T06:18:58;1.77;;;1.00;;
35648;SDS011;21768;48.562;13.414;2024-01-07T06:21:23;3.75;;;1.25;;
35648;SDS011;21768;48.562;13.414;2024-01-07T06:23:49;4.13;;;1.08;;
35648;SDS011;21768;48.562;13.414;2024-01-07T06:26:14;2.42;;;1.30;;
35648;SDS011;21768;48.562;13.414;2024-01-07T06:28:40;3.42;;;1.27;;
35648;SDS011;21768;48.562;13.414;2024-01-07T06:31:05;3.10;;;1.60;;
35648;SDS011;21768;48.562;13.414;2024-01-07T06:33:31;3.50;;;1.83;;
35648;SDS011;21768;48.562;13.414;2024-01-07T06:35:56;4.18;;;1.90;;
35648;SDS011;21768;48.562;13.414;2024-01-07T06:38:22;5.97;;;1.48;;
35648;SDS011;21768;48.562;13.414;2024-01-07T06:40:47;3.17;;;1.52;;
35648;SDS011;21768;48.562;13.414;2024-01-07T06:43:12;5.00;;;1.70;;
35648;SDS011;21768;48.562;13.414;2024-01-07T06:45:38;3.95;;;1.67;;
35648;SDS011;21768;48.562;13.414;2024-01-07T06:48:03;5.60;;;1.88;;
35648;SDS011;21768;48.562;13.414;2024-01-07T06:50:28;2.40;;;1.50;;
35648;SDS011;21768;48.562;13.414;2024-01-07T06:52:54;3.28;;;1.50;;
35648;SDS011;21768;48.562;13.414;2024-01-07T06:55:19;2.58;;;1.33;;
35648;SDS011;21768;48.562;13.414;2024-01-07T06:57:44;7.88;;;1.65;;
35648;SDS011;21768;48.562;13.414;2024-01-07T07:00:10;2.33;;;1.40;;
35648;SDS011;21768;48.562;13.414;2024-01-07T07:02:36;2.75;;;1.60;;
35648;SDS011;21768;48.562;13.414;2024-01-07T07:05:01;2.55;;;1.52;;
35648;SDS011;21768;48.562;13.414;2024-01-07T07:07:27;3.42;;;1.45;;
35648;SDS011;21768;48.562;13.414;2024-01-07T07:09:52;2.17;;;1.40;;
35648;SDS011;21768;48.562;13.414;2024-01-07T07:12:18;2.50;;;1.33;;
35648;SDS011;21768;48.562;13.414;2024-01-07T07:14:43;3.33;;;1.70;;
35648;SDS011;21768;48.562;13.414;2024-01-07T07:17:08;2.88;;;1.70;;
35648;SDS011;21768;48.562;13.414;2024-01-07T07:19:34;3.20;;;1.55;;
35648;SDS011;21768;48.562;13.414;2024-01-07T07:21:59;3.10;;;1.70;;
35648;SDS011;21768;48.562;13.414;2024-01-07T07:24:24;3.22;;;1.67;;
35648;SDS011;21768;48.562;13.414;2024-01-07T07:26:50;3.42;;;1.60;;
35648;SDS011;21768;48.562;13.414;2024-01-07T07:29:15;3.53;;;1.60;;
35648;SDS011;21768;48.562;13.414;2024-01-07T07:31:40;2.42;;;1.60;;
35648;SDS011;21768;48.562;13.414;2024-01-07T07:34:08;3.67;;;1.58;;
35648;SDS011;21768;48.562;13.414;2024-01-07T07:36:34;5.07;;;1.58;;
35648;SDS011;21768;48.562;13.414;2024-01-07T07:38:59;4.32;;;1.38;;
35648;SDS011;21768;48.562;13.414;2024-01-07T07:41:25;4.68;;;1.80;;
35648;SDS011;21768;48.562;13.414;2024-01-07T07:43:50;5.57;;;1.48;;
35648;SDS011;21768;48.562;13.414;2024-01-07T07:46:15;3.47;;;1.55;;
35648;SDS011;21768;48.562;13.414;2024-01-07T07:48:41;2.40;;;1.65;;
35648;SDS011;21768;48.562;13.414;2024-01-07T07:51:06;2.90;;;1.60;;
35648;SDS011;21768;48.562;13.414;2024-01-07T07:53:32;2.75;;;1.50;;
35648;SDS011;21768;48.562;13.414;2024-01-07T07:55:58;3.83;;;1.90;;
35648;SDS011;21768;48.562;13.414;2024-01-07T07:58:24;3.40;;;1.55;;
35648;SDS011;21768;48.562;13.414;2024-01-07T08:00:49;3.28;;;1.52;;
35648;SDS011;21768;48.562;13.414;2024-01-07T08:03:14;2.70;;;1.40;;
35648;SDS011;21768;48.562;13.414;2024-01-07T08:05:40;3.15;;;1.60;;
35648;SDS011;21768;48.562;13.414;2024-01-07T08:08:07;3.92;;;1.65;;
35648;SDS011;21768;48.562;13.414;2024-01-07T08:10:33;2.72;;;1.55;;
35648;SDS011;21768;48.562;13.414;2024-01-07T08:13:00;3.50;;;1.88;;
35648;SDS011;21768;48.562;13.414;2024-01-07T08:15:25;3.80;;;1.80;;
35648;SDS011;21768;48.562;13.414;2024-01-07T08:17:51;4.13;;;2.08;;
35648;SDS011;21768;48.562;13.414;2024-01-07T08:20:16;4.30;;;1.80;;
35648;SDS011;21768;48.562;13.414;2024-01-07T08:22:42;5.22;;;2.20;;
35648;SDS011;21768;48.562;13.414;2024-01-07T08:25:07;5.25;;;2.33;;
35648;SDS011;21768;48.562;13.414;2024-01-07T08:27:33;5.38;;;2.63;;
35648;SDS011;21768;48.562;13.414;2024-01-07T08:30:00;6.07;;;2.60;;
35648;SDS011;21768;48.562;13.414;2024-01-07T08:32:26;5.35;;;2.50;;
35648;SDS011;21768;48.562;13.414;2024-01-07T08:34:52;7.07;;;2.75;;
35648;SDS011;21768;48.562;13.414;2024-01-07T08:37:17;5.63;;;2.40;;
35648;SDS011;21768;48.562;13.414;2024-01-07T08:39:42;8.88;;;2.65;;
35648;SDS011;21768;48.562;13.414;2024-01-07T08:42:08;7.85;;;2.97;;
35648;SDS011;21768;48.562;13.414;2024-01-07T08:44:34;5.43;;;2.92;;
35648;SDS011;21768;48.562;13.414;2024-01-07T08:46:59;6.55;;;3.00;;
35648;SDS011;21768;48.562;13.414;2024-01-07T08:49:26;5.30;;;2.15;;
35648;SDS011;21768;48.562;13.414;2024-01-07T08:51:52;5.93;;;2.47;;
35648;SDS011;21768;48.562;13.414;2024-01-07T08:54:17;7.63;;;2.20;;
35648;SDS011;21768;48.562;13.414;2024-01-07T08:56:43;4.50;;;1.88;;
35648;SDS011;21768;48.562;13.414;2024-01-07T08:59:09;3.78;;;1.85;;
35648;SDS011;21768;48.562;13.414;2024-01-07T09:01:35;4.82;;;2.28;;
35648;SDS011;21768;48.562;13.414;2024-01-07T09:04:01;8.63;;;2.10;;
35648;SDS011;21768;48.562;13.414;2024-01-07T09:06:26;4.28;;;2.15;;
35648;SDS011;21768;48.562;13.414;2024-01-07T09:08:51;4.55;;;2.30;;
35648;SDS011;21768;48.562;13.414;2024-01-07T09:11:20;3.97;;;2.17;;
35648;SDS011;21768;48.562;13.414;2024-01-07T09:13:45;4.28;;;2.42;;
35648;SDS011;21768;48.562;13.414;2024-01-07T09:16:13;4.10;;;2.15;;
35648;SDS011;21768;48.562;13.414;2024-01-07T09:18:39;4.40;;;2.50;;
35648;SDS011;21768;48.562;13.414;2024-01-07T09:21:05;5.72;;;2.90;;
35648;SDS011;21768;48.562;13.414;2024-01-07T09:23:31;6.05;;;3.72;;
35648;SDS011;21768;48.562;13.414;2024-01-07T09:25:58;6.32;;;2.95;;
35648;SDS011;21768;48.562;13.414;2024-01-07T09:28:24;6.88;;;3.92;;
35648;SDS011;21768;48.562;13.414;2024-01-07T09:30:49;8.00;;;4.13;;
35648;SDS011;21768;48.562;13.414;2024-01-07T09:33:15;5.30;;;3.10;;
35648;SDS011;21768;48.562;13.414;2024-01-07T09:35:40;7.45;;;3.33;;
35648;SDS011;21768;48.562;13.414;2024-01-07T09:38:06;5.28;;;3.25;;
35648;SDS011;21768;48.562;13.414;2024-01-07T09:40:32;6.43;;;2.90;;
35648;SDS011;21768;48.562;13.414;2024-01-07T09:42:57;8.25;;;3.30;;
35648;SDS011;21768;48.562;13.414;2024-01-07T09:45:24;6.35;;;3.15;;
35648;SDS011;21768;48.562;13.414;2024-01-07T09:47:51;7.30;;;3.22;;
35648;SDS011;21768;48.562;13.414;2024-01-07T09:50:16;8.30;;;3.45;;
35648;SDS011;21768;48.562;13.414;2024-01-07T09:52:44;5.85;;;3.28;;
35648;SDS011;21768;48.562;13.414;2024-01-07T09:55:21;6.32;;;3.00;;
35648;SDS011;21768;48.562;13.414;2024-01-07T09:57:53;5.95;;;3.42;;
35648;SDS011;21768;48.562;13.414;2024-01-07T10:00:19;7.30;;;3.25;;
35648;SDS011;21768;48.562;13.414;2024-01-07T10:02:45;7.78;;;3.00;;
35648;SDS011;21768;48.562;13.414;2024-01-07T10:05:10;5.57;;;2.85;;
35648;SDS011;21768;48.562;13.414;2024-01-07T10:07:36;5.28;;;2.95;;
35648;SDS011;21768;48.562;13.414;2024-01-07T10:10:12;6.35;;;3.58;;
35648;SDS011;21768;48.562;13.414;2024-01-07T10:12:43;6.72;;;3.92;;
35648;SDS011;21768;48.562;13.414;2024-01-07T10:15:09;31.83;;;14.95;;
35648;SDS011;21768;48.562;13.414;2024-01-07T10:17:34;9.75;;;5.10;;
35648;SDS011;21768;48.562;13.414;2024-01-07T10:20:00;6.50;;;3.20;;
35648;SDS011;21768;48.562;13.414;2024-01-07T10:22:25;7.70;;;3.80;;
35648;SDS011;21768;48.562;13.414;2024-01-07T10:24:51;7.97;;;4.07;;
35648;SDS011;21768;48.562;13.414;2024-01-07T10:27:17;6.55;;;3.10;;
35648;SDS011;21768;48.562;13.414;2024-01-07T10:29:42;8.75;;;3.83;;
35648;SDS011;21768;48.562;13.414;2024-01-07T10:32:08;11.40;;;4.72;;
35648;SDS011;21768;48.562;13.414;2024-01-07T10:34:34;9.10;;;4.13;;
35648;SDS011;21768;48.562;13.414;2024-01-07T10:37:02;4.43;;;2.95;;
35648;SDS011;21768;48.562;13.414;2024-01-07T10:39:29;7.32;;;3.20;;
35648;SDS011;21768;48.562;13.414;2024-01-07T10:41:55;6.57;;;3.10;;
35648;SDS011;21768;48.562;13.414;2024-01-07T10:44:28;7.07;;;3.10;;
35648;SDS011;21768;48.562;13.414;2024-01-07T10:46:55;7.55;;;3.63;;
35648;SDS011;21768;48.562;13.414;2024-01-07T10:49:22;6.70;;;3.80;;
35648;SDS011;21768;48.562;13.414;2024-01-07T10:52:12;6.22;;;3.63;;
35648;SDS011;21768;48.562;13.414;2024-01-07T10:54:38;8.07;;;4.00;;
35648;SDS011;21768;48.562;13.414;2024-01-07T10:57:24;8.65;;;3.90;;
35648;SDS011;21768;48.562;13.414;2024-01-07T10:59:59;8.65;;;4.00;;
35648;SDS011;21768;48.562;13.414;2024-01-07T11:02:25;6.68;;;3.88;;
35648;SDS011;21768;48.562;13.414;2024-01-07T11:07:57;7.60;;;3.60;;
35648;SDS011;21768;48.562;13.414;2024-01-07T11:10:31;11.05;;;3.95;;
35648;SDS011;21768;48.562;13.414;2024-01-07T11:13:08;6.95;;;3.67;;
35648;SDS011;21768;48.562;13.414;2024-01-07T11:18:21;7.32;;;4.30;;
35648;SDS011;21768;48.562;13.414;2024-01-07T11:20:47;5.75;;;3.30;;
35648;SDS011;21768;48.562;13.414;2024-01-07T11:23:26;7.57;;;4.05;;
35648;SDS011;21768;48.562;13.414;2024-01-07T11:26:11;7.72;;;3.67;;
35648;SDS011;21768;48.562;13.414;2024-01-07T11:31:09;6.95;;;4.10;;
35648;SDS011;21768;48.562;13.414;2024-01-07T11:33:38;6.70;;;3.80;;
35648;SDS011;21768;48.562;13.414;2024-01-07T11:36:06;7.82;;;3.67;;
35648;SDS011;21768;48.562;13.414;2024-01-07T11:38:33;9.95;;;3.85;;
35648;SDS011;21768;48.562;13.414;2024-01-07T11:41:00;7.93;;;4.10;;
35648;SDS011;21768;48.562;13.414;2024-01-07T11:43:28;7.80;;;4.28;;
35648;SDS011;21768;48.562;13.414;2024-01-07T11:45:54;6.95;;;3.95;;
35648;SDS011;21768;48.562;13.414;2024-01-07T11:48:19;12.40;;;4.85;;
35648;SDS011;21768;48.562;13.414;2024-01-07T11:50:45;19.52;;;8.63;;
35648;SDS011;21768;48.562;13.414;2024-01-07T11:53:11;12.63;;;6.18;;
35648;SDS011;21768;48.562;13.414;2024-01-07T11:55:37;12.18;;;5.22;;
35648;SDS011;21768;48.562;13.414;2024-01-07T11:58:03;15.52;;;6.05;;
35648;SDS011;21768;48.562;13.414;2024-01-07T12:00:35;25.00;;;9.07;;
35648;SDS011;21768;48.562;13.414;2024-01-07T12:03:00;16.23;;;7.47;;
35648;SDS011;21768;48.562;13.414;2024-01-07T12:05:26;12.95;;;6.43;;
35648;SDS011;21768;48.562;13.414;2024-01-07T12:07:52;12.13;;;6.20;;
35648;SDS011;21768;48.562;13.414;2024-01-07T12:10:18;9.18;;;5.07;;
35648;SDS011;21768;48.562;13.414;2024-01-07T12:12:43;14.63;;;5.90;;
35648;SDS011;21768;48.562;13.414;2024-01-07T12:15:09;10.82;;;4.90;;
35648;SDS011;21768;48.562;13.414;2024-01-07T12:17:38;8.65;;;4.40;;
35648;SDS011;21768;48.562;13.414;2024-01-07T12:20:07;11.63;;;5.00;;
35648;SDS011;21768;48.562;13.414;2024-01-07T12:22:36;8.95;;;4.50;;
35648;SDS011;21768;48.562;13.414;2024-01-07T12:25:05;8.20;;;4.43;;
35648;SDS011;21768;48.562;13.414;2024-01-07T12:27:31;10.48;;;4.88;;
35648;SDS011;21768;48.562;13.414;2024-01-07T12:29:58;10.68;;;5.10;;
35648;SDS011;21768;48.562;13.414;2024-01-07T12:32:27;10.90;;;4.82;;
35648;SDS011;21768;48.562;13.414;2024-01-07T12:34:52;12.82;;;5.22;;
35648;SDS011;21768;48.562;13.414;2024-01-07T12:37:18;13.18;;;5.18;;
35648;SDS011;21768;48.562;13.414;2024-01-07T12:39:44;8.20;;;4.40;;
35648;SDS011;21768;48.562;13.414;2024-01-07T12:42:09;9.50;;;4.95;;
35648;SDS011;21768;48.562;13.414;2024-01-07T12:44:38;9.10;;;5.00;;
35648;SDS011;21768;48.562;13.414;2024-01-07T12:47:03;8.20;;;5.20;;
35648;SDS011;21768;48.562;13.414;2024-01-07T12:49:29;9.65;;;4.53;;
35648;SDS011;21768;48.562;13.414;2024-01-07T12:51:54;8.02;;;4.13;;
35648;SDS011;21768;48.562;13.414;2024-01-07T12:54:19;7.40;;;4.55;;
35648;SDS011;21768;48.562;13.414;2024-01-07T12:56:46;10.15;;;4.70;;
35648;SDS011;21768;48.562;13.414;2024-01-07T12:59:12;12.95;;;6.05;;
35648;SDS011;21768;48.562;13.414;2024-01-07T13:01:37;12.00;;;5.53;;
35648;SDS011;21768;48.562;13.414;2024-01-07T13:04:02;11.57;;;6.32;;
35648;SDS011;21768;48.562;13.414;2024-01-07T13:06:28;10.80;;;5.88;;
35648;SDS011;21768;48.562;13.414;2024-01-07T13:08:54;11.90;;;6.32;;
35648;SDS011;21768;48.562;13.414;2024-01-07T13:11:19;11.93;;;6.28;;
35648;SDS011;21768;48.562;13.414;2024-01-07T13:13:45;14.98;;;6.78;;
35648;SDS011;21768;48.562;13.414;2024-01-07T13:16:11;16.60;;;8.20;;
35648;SDS011;21768;48.562;13.414;2024-01-07T13:18:37;12.65;;;6.43;;
35648;SDS011;21768;48.562;13.414;2024-01-07T13:21:02;20.88;;;9.40;;
35648;SDS011;21768;48.562;13.414;2024-01-07T13:23:31;13.07;;;6.22;;
35648;SDS011;21768;48.562;13.414;2024-01-07T13:25:57;22.00;;;8.63;;
35648;SDS011;21768;48.562;13.414;2024-01-07T13:28:23;15.20;;;6.63;;
35648;SDS011;21768;48.562;13.414;2024-01-07T13:30:48;10.13;;;5.95;;
35648;SDS011;21768;48.562;13.414;2024-01-07T13:33:14;14.73;;;6.30;;
35648;SDS011;21768;48.562;13.414;2024-01-07T13:35:42;11.95;;;6.07;;
35648;SDS011;21768;48.562;13.414;2024-01-07T13:38:08;34.80;;;13.43;;
35648;SDS011;21768;48.562;13.414;2024-01-07T13:40:34;72.15;;;25.88;;
35648;SDS011;21768;48.562;13.414;2024-01-07T13:43:00;18.75;;;10.88;;
35648;SDS011;21768;48.562;13.414;2024-01-07T13:45:25;12.20;;;6.07;;
35648;SDS011;21768;48.562;13.414;2024-01-07T13:47:51;14.13;;;8.10;;
35648;SDS011;21768;48.562;13.414;2024-01-07T13:50:16;14.43;;;7.40;;
35648;SDS011;21768;48.562;13.414;2024-01-07T13:52:41;18.73;;;9.73;;
35648;SDS011;21768;48.562;13.414;2024-01-07T13:55:07;24.63;;;10.90;;
35648;SDS011;21768;48.562;13.414;2024-01-07T13:57:36;32.15;;;13.45;;
35648;SDS011;21768;48.562;13.414;2024-01-07T14:00:02;16.85;;;7.80;;
35648;SDS011;21768;48.562;13.414;2024-01-07T14:02:34;13.90;;;6.65;;
35648;SDS011;21768;48.562;13.414;2024-01-07T14:04:59;10.25;;;6.15;;
35648;SDS011;21768;48.562;13.414;2024-01-07T14:07:25;12.55;;;6.80;;
35648;SDS011;21768;48.562;13.414;2024-01-07T14:09:51;18.98;;;8.57;;
35648;SDS011;21768;48.562;13.414;2024-01-07T14:12:17;19.17;;;8.95;;
35648;SDS011;21768;48.562;13.414;2024-01-07T14:14:42;19.50;;;8.77;;
35648;SDS011;21768;48.562;13.414;2024-01-07T14:17:08;21.88;;;10.27;;
35648;SDS011;21768;48.562;13.414;2024-01-07T14:19:33;18.60;;;9.23;;
35648;SDS011;21768;48.562;13.414;2024-01-07T14:21:59;17.20;;;8.98;;
35648;SDS011;21768;48.562;13.414;2024-01-07T14:24:24;14.63;;;7.88;;
35648;SDS011;21768;48.562;13.414;2024-01-07T14:26:49;11.75;;;6.47;;
35648;SDS011;21768;48.562;13.414;2024-01-07T14:29:15;10.52;;;5.72;;